createdAt,value
2019-03-08T00:00:50.789Z,88.6
2019-03-08T00:02:51.217Z,88.3
2019-03-08T00:04:49.982Z,88.2
2019-03-08T00:06:50.326Z,89.4
2019-03-08T00:08:50.678Z,89.1
2019-03-08T00:10:52.287Z,88.2
2019-03-08T00:12:50.813Z,88.4
2019-03-08T00:14:50.064Z,88.0
2019-03-08T00:16:50.496Z,88.5
2019-03-08T00:18:51.822Z,88.9
2019-03-08T00:20:50.198Z,89.7
2019-03-08T00:22:50.503Z,89.8
2019-03-08T00:24:50.732Z,89.1
2019-03-08T00:26:51.551Z,90.1
2019-03-08T00:28:50.939Z,89.0
2019-03-08T00:30:50.177Z,89.4
2019-03-08T00:32:50.374Z,87.2
2019-03-08T00:34:51.236Z,88.9
2019-03-08T00:36:50.765Z,88.0
2019-03-08T00:38:50.098Z,86.8
2019-03-08T00:40:50.311Z,86.3
2019-03-08T00:42:51.886Z,87.0
2019-03-08T00:44:50.310Z,85.9
2019-03-08T00:46:50.680Z,86.3
2019-03-08T00:48:50.818Z,86.3
2019-03-08T00:50:51.478Z,86.7
2019-03-08T00:52:50.010Z,85.9
2019-03-08T00:54:50.276Z,85.3
2019-03-08T00:56:50.721Z,85.3
2019-03-08T00:58:52.241Z,83.9
2019-03-08T01:00:50.490Z,83.7
2019-03-08T01:02:50.780Z,84.1
2019-03-08T01:04:50.368Z,84.1
2019-03-08T01:06:52.218Z,84.4
2019-03-08T01:08:50.644Z,84.8
2019-03-08T01:10:50.822Z,87.0
2019-03-08T01:12:50.067Z,85.9
2019-03-08T01:14:51.655Z,86.7
2019-03-08T01:16:50.333Z,86.9
2019-03-08T01:18:50.521Z,86.8
2019-03-08T01:20:50.713Z,85.7
2019-03-08T01:22:52.430Z,85.3
2019-03-08T01:24:50.736Z,85.4
2019-03-08T01:26:50.103Z,86.3
2019-03-08T01:28:50.396Z,86.3
2019-03-08T01:30:51.924Z,85.5
2019-03-08T01:32:50.337Z,85.4
2019-03-08T01:34:50.869Z,84.6
2019-03-08T01:36:50.304Z,84.9
2019-03-08T01:38:51.569Z,85.0
2019-03-08T01:40:50.022Z,85.1
2019-03-08T01:42:50.308Z,85.4
2019-03-08T01:44:50.573Z,85.8
2019-03-08T01:46:52.039Z,84.7
2019-03-08T01:48:50.392Z,85.6
2019-03-08T01:50:50.548Z,84.6
2019-03-08T01:52:50.717Z,85.5
2019-03-08T01:54:51.361Z,86.2
2019-03-08T01:56:50.813Z,85.8
2019-03-08T01:58:50.127Z,86.7
2019-03-08T02:00:50.393Z,86.2
2019-03-08T02:02:52.077Z,85.6
2019-03-08T02:04:50.642Z,86.3
2019-03-08T02:06:50.023Z,87.2
2019-03-08T02:08:50.290Z,86.7
2019-03-08T02:10:51.464Z,85.4
2019-03-08T02:12:50.963Z,84.7
2019-03-08T02:14:50.258Z,85.5
2019-03-08T02:16:50.668Z,85.2
2019-03-08T02:18:51.604Z,86.0
2019-03-08T02:20:52.927Z,86.2
2019-03-08T02:22:50.216Z,85.7
2019-03-08T02:24:50.452Z,86.0
2019-03-08T02:26:51.547Z,86.4
2019-03-08T02:28:50.815Z,85.5
2019-03-08T02:30:50.154Z,85.7
2019-03-08T02:32:50.437Z,85.9
2019-03-08T02:34:51.210Z,85.6
2019-03-08T02:36:50.715Z,86.1
2019-03-08T02:38:50.945Z,87.2
2019-03-08T02:40:50.162Z,86.4
2019-03-08T02:42:51.530Z,87.2
2019-03-08T02:44:50.798Z,87.3
2019-03-08T02:46:50.261Z,87.1
2019-03-08T02:48:50.403Z,86.7
2019-03-08T02:50:50.805Z,86.9
2019-03-08T02:52:50.206Z,87.1
2019-03-08T02:54:50.390Z,86.4
2019-03-08T02:56:50.738Z,85.8
2019-03-08T02:58:50.392Z,86.7
2019-03-08T03:00:50.597Z,86.5
2019-03-08T03:02:50.805Z,87.6
2019-03-08T03:04:50.541Z,86.8
2019-03-08T03:06:50.978Z,87.0
2019-03-08T03:08:50.198Z,87.2
2019-03-08T03:10:50.453Z,87.2
2019-03-08T03:12:50.695Z,87.1
2019-03-08T03:14:50.988Z,86.8
2019-03-08T03:16:50.355Z,86.3
2019-03-08T03:18:50.585Z,86.0
2019-03-08T03:20:50.778Z,85.3
2019-03-08T03:22:50.091Z,85.8
2019-03-08T03:24:50.310Z,84.8
2019-03-08T03:26:50.622Z,85.1
2019-03-08T03:28:50.834Z,85.5
2019-03-08T03:30:50.195Z,84.4
2019-03-08T03:32:50.520Z,85.5
2019-03-08T03:34:50.213Z,86.1
2019-03-08T03:36:50.630Z,83.8
2019-03-08T03:38:50.814Z,84.4
2019-03-08T03:40:50.096Z,83.7
2019-03-08T03:42:50.333Z,83.6
2019-03-08T03:44:50.465Z,82.2
2019-03-08T03:46:50.857Z,82.4
2019-03-08T03:48:50.121Z,82.5
2019-03-08T03:50:50.313Z,81.7
2019-03-08T03:52:50.545Z,80.9
2019-03-08T03:54:50.792Z,81.4
2019-03-08T03:56:50.258Z,81.4
2019-03-08T03:58:50.433Z,81.0
2019-03-08T04:00:50.687Z,80.8
2019-03-08T04:02:50.890Z,79.8
2019-03-08T04:04:50.486Z,79.8
2019-03-08T04:06:50.816Z,80.7
2019-03-08T04:08:50.079Z,80.6
2019-03-08T04:10:50.289Z,78.9
2019-03-08T04:12:50.553Z,79.2
2019-03-08T04:14:50.715Z,78.7
2019-03-08T04:16:50.093Z,78.6
2019-03-08T04:18:50.292Z,77.8
2019-03-08T04:20:50.486Z,78.1
2019-03-08T04:22:50.669Z,78.2
2019-03-08T04:24:50.986Z,77.8
2019-03-08T04:26:50.370Z,78.2
2019-03-08T04:28:50.637Z,78.2
2019-03-08T04:30:50.774Z,78.3
2019-03-08T04:32:50.143Z,78.9
2019-03-08T04:34:50.727Z,79.1
2019-03-08T04:36:50.143Z,80.6
2019-03-08T04:38:50.386Z,80.4
2019-03-08T04:40:50.608Z,81.1
2019-03-08T04:42:50.847Z,81.6
2019-03-08T04:44:50.195Z,81.1
2019-03-08T04:46:50.616Z,80.9
2019-03-08T04:48:50.758Z,83.1
2019-03-08T04:50:50.049Z,83.2
2019-03-08T04:52:50.321Z,82.4
2019-03-08T04:54:50.481Z,82.5
2019-03-08T04:56:50.779Z,82.9
2019-03-08T04:58:49.997Z,81.7
2019-03-08T05:00:50.161Z,81.8
2019-03-08T05:02:50.388Z,82.9
2019-03-08T05:04:50.028Z,82.6
2019-03-08T05:06:50.445Z,82.6
2019-03-08T05:08:50.651Z,83.2
2019-03-08T05:10:50.791Z,83.3
2019-03-08T05:12:50.106Z,83.5
2019-03-08T05:14:50.427Z,83.5
2019-03-08T05:16:50.854Z,83.9
2019-03-08T05:18:50.007Z,83.8
2019-03-08T05:20:50.306Z,83.8
2019-03-08T05:22:50.509Z,84.6
2019-03-08T05:24:50.666Z,83.7
2019-03-08T05:26:50.556Z,83.9
2019-03-08T05:28:50.908Z,84.0
2019-03-08T05:30:50.693Z,83.4
2019-03-08T05:32:49.981Z,83.0
2019-03-08T05:34:50.609Z,83.0
2019-03-08T05:36:51.044Z,82.3
2019-03-08T05:38:50.369Z,82.9
2019-03-08T05:40:50.611Z,82.9
2019-03-08T05:42:50.785Z,82.6
2019-03-08T05:44:50.106Z,81.8
2019-03-08T05:46:51.396Z,82.2
2019-03-08T05:48:50.668Z,82.9
2019-03-08T05:50:50.912Z,81.9
2019-03-08T05:52:50.201Z,81.2
2019-03-08T05:54:51.772Z,80.9
2019-03-08T05:56:50.349Z,80.8
2019-03-08T05:58:50.541Z,80.5
2019-03-08T06:00:50.745Z,80.1
2019-03-08T06:02:51.604Z,79.2
2019-03-08T06:04:50.251Z,79.4
2019-03-08T06:06:50.611Z,79.0
2019-03-08T06:08:50.769Z,79.5
2019-03-08T06:10:50.515Z,79.1
2019-03-08T06:12:50.904Z,78.9
2019-03-08T06:14:50.194Z,79.2
2019-03-08T06:16:50.472Z,79.4
2019-03-08T06:18:50.687Z,79.5
2019-03-08T06:20:50.913Z,78.9
2019-03-08T06:22:50.212Z,78.4
2019-03-08T06:24:50.471Z,78.8
2019-03-08T06:26:50.955Z,79.3
2019-03-08T06:28:50.151Z,79.6
2019-03-08T06:30:50.408Z,79.9
2019-03-08T06:32:50.610Z,80.0
2019-03-08T06:34:50.162Z,79.9
2019-03-08T06:36:50.004Z,80.4
2019-03-08T06:38:50.244Z,80.6
2019-03-08T06:40:50.486Z,80.7
2019-03-08T06:42:50.690Z,80.8
2019-03-08T06:44:50.952Z,80.7
2019-03-08T06:46:50.431Z,80.5
2019-03-08T06:48:50.624Z,80.8
2019-03-08T06:50:50.749Z,80.8
2019-03-08T06:52:51.027Z,80.4
2019-03-08T06:54:50.322Z,79.9
2019-03-08T06:56:50.656Z,79.5
2019-03-08T06:58:50.814Z,79.1
2019-03-08T07:00:50.061Z,78.6
2019-03-08T07:02:51.010Z,78.3
2019-03-08T07:04:50.680Z,78.2
2019-03-08T07:06:50.051Z,77.0
2019-03-08T07:08:50.328Z,77.3
2019-03-08T07:10:50.549Z,76.9
2019-03-08T07:12:51.698Z,76.6
2019-03-08T07:14:50.031Z,76.4
2019-03-08T07:16:50.335Z,76.0
2019-03-08T07:18:52.498Z,75.9
2019-03-08T07:20:51.923Z,75.3
2019-03-08T07:22:50.327Z,75.1
2019-03-08T07:24:50.891Z,74.7
2019-03-08T07:26:50.485Z,74.4
2019-03-08T07:28:51.926Z,74.6
2019-03-08T07:30:58.824Z,74.1
2019-03-08T07:32:50.104Z,74.1
2019-03-08T07:34:50.708Z,73.6
2019-03-08T07:36:51.924Z,74.2
2019-03-08T07:38:50.353Z,74.7
2019-03-08T07:40:50.101Z,74.4
2019-03-08T07:42:50.417Z,74.1
2019-03-08T07:44:51.467Z,74.1
2019-03-08T07:46:50.849Z,73.4
2019-03-08T07:48:50.829Z,73.6
2019-03-08T07:50:49.994Z,73.6
2019-03-08T07:52:51.386Z,72.5
2019-03-08T07:54:53.857Z,73.8
2019-03-08T07:56:50.631Z,72.2
2019-03-08T07:58:50.906Z,71.8
2019-03-08T08:00:51.185Z,71.6
2019-03-08T08:02:50.394Z,70.1
2019-03-08T08:04:50.882Z,70.1
2019-03-08T08:06:50.297Z,69.0
2019-03-08T08:08:52.575Z,69.0
2019-03-08T08:10:50.113Z,69.4
2019-03-08T08:12:50.413Z,69.3
2019-03-08T08:14:50.874Z,68.5
2019-03-08T08:16:50.907Z,68.0
2019-03-08T08:18:50.306Z,67.6
2019-03-08T08:20:50.488Z,67.5
2019-03-08T08:22:50.742Z,67.5
2019-03-08T08:24:50.746Z,67.6
2019-03-08T08:26:50.255Z,67.6
2019-03-08T08:28:50.912Z,67.4
2019-03-08T08:30:50.769Z,66.4
2019-03-08T08:32:50.064Z,67.3
2019-03-08T08:34:50.672Z,67.0
2019-03-08T08:36:50.293Z,66.7
2019-03-08T08:38:50.025Z,66.2
2019-03-08T08:40:50.781Z,66.0
2019-03-08T08:42:50.212Z,66.2
2019-03-08T08:44:50.492Z,66.0
2019-03-08T08:46:50.973Z,65.5
2019-03-08T08:48:50.928Z,64.7
2019-03-08T08:50:50.512Z,64.9
2019-03-08T08:52:50.754Z,64.4
2019-03-08T08:54:50.222Z,64.1
2019-03-08T08:56:50.586Z,64.2
2019-03-08T08:58:50.718Z,64.2
2019-03-08T09:00:51.028Z,63.9
2019-03-08T09:02:50.270Z,64.5
2019-03-08T09:04:49.979Z,64.0
2019-03-08T09:06:50.374Z,63.5
2019-03-08T09:08:50.323Z,62.6
2019-03-08T09:10:50.555Z,61.8
2019-03-08T09:12:50.514Z,61.1
2019-03-08T09:14:50.737Z,61.8
2019-03-08T09:16:50.192Z,60.9
2019-03-08T09:18:50.381Z,60.3
2019-03-08T09:20:50.612Z,60.3
2019-03-08T09:22:50.783Z,59.8
2019-03-08T09:24:50.988Z,59.1
2019-03-08T09:26:50.735Z,58.7
2019-03-08T09:28:50.296Z,60.8
2019-03-08T09:30:50.524Z,58.8
2019-03-08T09:33:00.105Z,59.4
2019-03-08T09:34:50.791Z,59.9
2019-03-08T09:36:50.587Z,59.9
2019-03-08T09:38:50.855Z,59.6
2019-03-08T09:40:50.398Z,60.3
2019-03-08T09:42:50.593Z,60.2
2019-03-08T09:44:50.746Z,60.7
2019-03-08T09:46:50.251Z,61.0
2019-03-08T09:48:50.423Z,60.3
2019-03-08T09:50:50.643Z,60.3
2019-03-08T09:52:50.394Z,60.4
2019-03-08T09:54:50.636Z,60.4
2019-03-08T09:56:50.048Z,60.9
2019-03-08T09:58:50.262Z,60.7
2019-03-08T10:00:50.432Z,60.6
2019-03-08T10:02:50.724Z,61.4
2019-03-08T10:04:50.215Z,61.0
2019-03-08T10:06:50.580Z,60.5
2019-03-08T10:08:50.596Z,59.2
2019-03-08T10:10:50.183Z,58.1
2019-03-08T10:12:50.300Z,60.3
2019-03-08T10:14:50.561Z,57.1
2019-03-08T10:16:50.068Z,57.7
2019-03-08T10:18:50.105Z,58.1
2019-03-08T10:20:50.085Z,57.7
2019-03-08T10:22:50.278Z,57.7
2019-03-08T10:24:50.520Z,57.5
2019-03-08T10:26:50.882Z,57.5
2019-03-08T10:28:50.077Z,58.1
2019-03-08T10:30:50.215Z,58.2
2019-03-08T10:32:50.490Z,58.7
2019-03-08T10:34:50.019Z,58.8
2019-03-08T10:36:50.356Z,57.9
2019-03-08T10:38:50.175Z,58.6
2019-03-08T10:40:50.337Z,58.2
2019-03-08T10:42:50.535Z,58.9
2019-03-08T10:44:50.729Z,58.7
2019-03-08T10:46:50.224Z,58.9
2019-03-08T10:48:50.347Z,58.8
2019-03-08T10:50:52.277Z,59.1
2019-03-08T10:52:50.435Z,58.9
2019-03-08T10:54:50.581Z,58.6
2019-03-08T10:56:50.913Z,58.6
2019-03-08T10:58:50.143Z,57.1
2019-03-08T11:00:50.392Z,58.0
2019-03-08T11:02:50.624Z,57.6
2019-03-08T11:04:50.282Z,56.5
2019-03-08T11:06:50.537Z,56.4
2019-03-08T11:08:50.260Z,55.9
2019-03-08T11:10:50.433Z,55.4
2019-03-08T11:12:50.291Z,55.3
2019-03-08T11:14:50.525Z,56.0
2019-03-08T11:16:50.874Z,55.6
2019-03-08T11:18:50.130Z,55.7
2019-03-08T11:20:50.304Z,56.9
2019-03-08T11:22:50.537Z,57.1
2019-03-08T11:24:50.146Z,56.5
2019-03-08T11:26:50.568Z,56.7
2019-03-08T11:28:50.793Z,57.4
2019-03-08T11:30:54.829Z,57.4
2019-03-08T11:32:50.586Z,55.9
2019-03-08T11:34:52.950Z,55.9
2019-03-08T11:36:50.397Z,56.8
2019-03-08T11:38:50.815Z,56.3
2019-03-08T11:40:50.114Z,56.3
2019-03-08T11:42:50.059Z,56.9
2019-03-08T11:44:49.998Z,56.8
2019-03-08T11:46:50.317Z,57.3
2019-03-08T11:48:50.350Z,57.3
2019-03-08T11:50:50.212Z,57.4
2019-03-08T11:52:50.493Z,57.8
2019-03-08T11:54:50.779Z,57.7
2019-03-08T11:56:57.103Z,57.6
2019-03-08T11:58:50.056Z,57.4
2019-03-08T12:00:50.258Z,57.0
2019-03-08T12:02:51.027Z,56.6
2019-03-08T12:04:50.584Z,56.2
2019-03-08T12:06:50.563Z,56.4
2019-03-08T12:08:50.790Z,55.8
2019-03-08T12:10:51.012Z,56.0
2019-03-08T12:12:50.354Z,55.9
2019-03-08T12:14:50.974Z,56.2
2019-03-08T12:16:50.325Z,56.8
2019-03-08T12:18:50.697Z,55.1
2019-03-08T12:20:50.048Z,55.5
2019-03-08T12:22:50.834Z,55.9
2019-03-08T12:24:50.648Z,55.8
2019-03-08T12:26:50.276Z,55.4
2019-03-08T12:28:50.404Z,56.9
2019-03-08T12:30:50.983Z,56.2
2019-03-08T12:32:50.203Z,55.3
2019-03-08T12:34:50.691Z,55.5
2019-03-08T12:36:50.099Z,55.9
2019-03-08T12:38:50.287Z,56.4
2019-03-08T12:40:50.513Z,56.4
2019-03-08T12:42:50.815Z,56.8
2019-03-08T12:44:50.068Z,58.1
2019-03-08T12:46:50.533Z,59.0
2019-03-08T12:48:50.956Z,60.0
2019-03-08T12:50:50.215Z,61.8
2019-03-08T12:52:50.736Z,62.6
2019-03-08T12:54:50.964Z,63.5
2019-03-08T12:56:50.633Z,64.5
2019-03-08T12:58:51.494Z,64.7
2019-03-08T13:00:50.835Z,65.7
2019-03-08T13:02:50.571Z,66.1
2019-03-08T13:04:50.062Z,71.1
2019-03-08T13:06:51.802Z,79.8
2019-03-08T13:08:50.737Z,85.3
2019-03-08T13:10:50.629Z,93.3
2019-03-08T13:12:50.929Z,93.1
2019-03-08T13:14:51.796Z,93.3
2019-03-08T13:16:50.393Z,94.8
2019-03-08T13:18:50.599Z,94.4
2019-03-08T13:20:50.950Z,95.8
2019-03-08T13:22:51.733Z,94.2
2019-03-08T13:24:50.244Z,93.5
2019-03-08T13:26:50.655Z,92.6
2019-03-08T13:28:50.860Z,88.6
2019-03-08T13:30:51.262Z,90.3
2019-03-08T13:32:50.929Z,91.1
2019-03-08T13:34:50.601Z,92.7
2019-03-08T13:36:51.018Z,95.0
2019-03-08T13:38:51.508Z,96.0
2019-03-08T13:40:50.018Z,97.0
2019-03-08T13:42:50.279Z,99.8
2019-03-08T13:44:50.490Z,99.2
2019-03-08T13:46:52.327Z,100.0
2019-03-08T13:48:50.930Z,100.0
2019-03-08T13:50:50.219Z,100.0
2019-03-08T13:52:50.508Z,100.0
2019-03-08T13:54:51.956Z,99.8
2019-03-08T13:56:50.507Z,100.0
2019-03-08T13:58:50.828Z,100.0
2019-03-08T14:00:50.119Z,99.0
2019-03-08T14:02:51.785Z,89.5
2019-03-08T14:04:50.616Z,75
2019-03-08T14:06:49.995Z,77
2019-03-08T14:08:50.223Z,76
2019-03-08T14:10:51.917Z,76
2019-03-08T14:12:50.302Z,77
2019-03-08T14:14:50.678Z,77
2019-03-08T14:16:50.091Z,76
2019-03-08T14:18:51.908Z,76
2019-03-08T14:20:50.264Z,76
2019-03-08T14:22:50.335Z,76
2019-03-08T14:24:50.540Z,76
2019-03-08T14:26:51.951Z,76
2019-03-08T14:28:50.275Z,85.3
2019-03-08T14:30:58.797Z,84.7
2019-03-08T14:32:49.993Z,84.9
2019-03-08T14:34:55.536Z,84.9
2019-03-08T14:36:49.999Z,86.6
2019-03-08T14:38:50.253Z,85.6
2019-03-08T14:40:59.413Z,85.6
2019-03-08T14:42:51.733Z,85.4
2019-03-08T14:44:50.120Z,85.3
2019-03-08T14:46:57.984Z,84.5
2019-03-08T14:48:50.220Z,85.4
2019-03-08T14:50:50.424Z,86.1
2019-03-08T14:52:54.237Z,85.4
2019-03-08T14:54:50.316Z,88.7
2019-03-08T14:56:50.667Z,88.3
2019-03-08T14:58:50.810Z,89.7
2019-03-08T15:00:50.796Z,89.7
2019-03-08T15:02:50.260Z,91.8
2019-03-08T15:04:50.831Z,91.9
2019-03-08T15:06:50.251Z,92.2
2019-03-08T15:08:57.792Z,94.2
2019-03-08T15:10:51.959Z,95.3
2019-03-08T15:12:50.260Z,98.1
2019-03-08T15:14:50.285Z,98.6
2019-03-08T15:16:50.475Z,100.0
2019-03-08T15:18:50.771Z,100.0
2019-03-08T15:20:50.094Z,100.0
2019-03-08T15:22:50.264Z,100.0
2019-03-08T15:24:51.869Z,100.0
2019-03-08T15:26:50.249Z,100.0
2019-03-08T15:28:50.452Z,100.0
2019-03-08T15:30:50.762Z,100.0
2019-03-08T15:32:51.854Z,100.0
2019-03-08T15:34:50.290Z,100.0
2019-03-08T15:36:50.528Z,100.0
2019-03-08T15:38:59.571Z,100.0
2019-03-08T15:40:50.696Z,100.0
2019-03-08T15:42:50.879Z,100.0
2019-03-08T15:44:52.156Z,99.1
2019-03-08T15:46:50.352Z,99.2
2019-03-08T15:48:55.172Z,99.4
2019-03-08T15:50:50.184Z,98.6
2019-03-08T15:52:51.903Z,99.5
2019-03-08T15:54:49.891Z,99.1
2019-03-08T15:56:49.951Z,99.5
2019-03-08T15:58:49.903Z,100.0
2019-03-08T16:00:49.863Z,100.0
2019-03-08T16:02:50.274Z,100.0
2019-03-08T16:04:51.934Z,100.0
2019-03-08T16:06:50.875Z,100.0
2019-03-08T16:08:50.138Z,100.0
2019-03-08T16:10:50.235Z,100.0
2019-03-08T16:12:50.216Z,100.0
2019-03-08T16:14:50.477Z,100.0
2019-03-08T16:16:50.795Z,100.0
2019-03-08T16:18:50.032Z,100.0
2019-03-08T16:20:50.188Z,100.0
2019-03-08T16:22:50.363Z,100.0
2019-03-08T16:24:50.515Z,100.0
2019-03-08T16:26:50.784Z,100.0
2019-03-08T16:28:50.918Z,100.0
2019-03-08T16:30:50.005Z,100.0
2019-03-08T16:32:50.133Z,100.0
2019-03-08T16:34:50.650Z,100.0
2019-03-08T16:36:50.875Z,100.0
2019-03-08T16:38:49.983Z,100.0
2019-03-08T16:40:51.726Z,100.0
2019-03-08T16:42:50.714Z,100.0
2019-03-08T16:44:50.833Z,100.0
2019-03-08T16:46:50.713Z,100.0
2019-03-08T16:48:50.853Z,100.0
2019-03-08T16:50:49.987Z,100.0
2019-03-08T16:52:50.122Z,100.0
2019-03-08T16:54:50.294Z,100.0
2019-03-08T16:56:50.523Z,100.0
2019-03-08T16:58:50.383Z,100.0
2019-03-08T17:00:50.514Z,100.0
2019-03-08T17:02:50.693Z,100.0
2019-03-08T17:04:50.195Z,100.0
2019-03-08T17:06:51.900Z,100.0
2019-03-08T17:08:50.172Z,100.0
2019-03-08T17:10:50.354Z,100.0
2019-03-08T17:12:50.452Z,100.0
2019-03-08T17:14:50.563Z,100.0
2019-03-08T17:16:50.241Z,100.0
2019-03-08T17:18:50.359Z,100.0
2019-03-08T17:20:50.486Z,100.0
2019-03-08T17:22:50.613Z,100.0
2019-03-08T17:24:50.699Z,100.0
2019-03-08T17:26:49.985Z,100.0
2019-03-08T17:28:50.178Z,100.0
2019-03-08T17:30:50.328Z,100.0
2019-03-08T17:32:50.609Z,100.0
2019-03-08T17:34:50.369Z,100.0
2019-03-08T17:36:50.240Z,100.0
2019-03-08T17:38:50.406Z,100.0
2019-03-08T17:40:51.860Z,100.0
2019-03-08T17:42:50.313Z,100.0
2019-03-08T17:44:50.182Z,100.0
2019-03-08T17:46:50.410Z,100.0
2019-03-08T17:48:50.931Z,100.0
2019-03-08T17:50:50.237Z,100.0
2019-03-08T17:52:50.572Z,100.0
2019-03-08T17:54:50.699Z,100.0
2019-03-08T17:56:50.618Z,100.0
2019-03-08T17:58:50.509Z,100.0
2019-03-08T18:00:50.337Z,100.0
2019-03-08T18:02:50.138Z,100.0
2019-03-08T18:04:50.498Z,100.0
2019-03-08T18:06:51.684Z,100.0
2019-03-08T18:08:49.978Z,100.0
2019-03-08T18:10:50.146Z,100.0
2019-03-08T18:12:50.249Z,100.0
2019-03-08T18:14:51.248Z,100.0
2019-03-08T18:16:50.232Z,100.0
2019-03-08T18:18:50.340Z,100.0
2019-03-08T18:20:50.519Z,100.0
2019-03-08T18:22:50.650Z,100.0
2019-03-08T18:24:50.526Z,100.0
2019-03-08T18:26:50.726Z,100.0
2019-03-08T18:28:50.430Z,100.0
2019-03-08T18:30:50.181Z,100.0
2019-03-08T18:32:50.322Z,100.0
2019-03-08T18:34:50.799Z,100.0
2019-03-08T18:36:50.064Z,100.0
2019-03-08T18:38:50.171Z,100.0
2019-03-08T18:40:51.656Z,100.0
2019-03-08T18:42:50.015Z,100.0
2019-03-08T18:44:50.269Z,100.0
2019-03-08T18:46:50.545Z,100.0
2019-03-08T18:48:50.699Z,100.0
2019-03-08T18:50:50.841Z,100.0
2019-03-08T18:52:50.248Z,100.0
2019-03-08T18:54:50.791Z,100.0
2019-03-08T18:56:50.503Z,100.0
2019-03-08T18:58:50.081Z,100.0
2019-03-08T19:00:50.381Z,100.0
2019-03-08T19:02:50.025Z,100.0
2019-03-08T19:04:50.305Z,100.0
2019-03-08T19:06:52.014Z,100.0
2019-03-08T19:08:50.319Z,100.0
2019-03-08T19:10:50.825Z,100.0
2019-03-08T19:12:50.008Z,100.0
2019-03-08T19:14:50.257Z,100.0
2019-03-08T19:16:49.974Z,100.0
2019-03-08T19:18:50.929Z,100.0
2019-03-08T19:20:50.430Z,100.0
2019-03-08T19:22:50.608Z,100.0
2019-03-08T19:24:50.795Z,100.0
2019-03-08T19:26:50.094Z,100.0
2019-03-08T19:28:50.213Z,100.0
2019-03-08T19:30:50.416Z,100.0
2019-03-08T19:32:52.504Z,100.0
2019-03-08T19:34:50.088Z,100.0
2019-03-08T19:36:50.283Z,100.0
2019-03-08T19:38:50.412Z,100.0
2019-03-08T19:40:50.843Z,100.0
2019-03-08T19:42:50.162Z,100.0
2019-03-08T19:44:50.317Z,100.0
2019-03-08T19:46:50.954Z,100.0
2019-03-08T19:48:50.108Z,100.0
2019-03-08T19:50:50.282Z,100.0
2019-03-08T19:52:50.488Z,100.0
2019-03-08T19:54:50.636Z,100.0
2019-03-08T19:56:50.969Z,100.0
2019-03-08T19:58:50.155Z,100.0
2019-03-08T20:00:50.307Z,100.0
2019-03-08T20:02:50.559Z,100.0
2019-03-08T20:04:50.053Z,100.0
2019-03-08T20:06:51.591Z,100.0
2019-03-08T20:08:50.550Z,100.0
2019-03-08T20:10:50.720Z,100.0
2019-03-08T20:12:50.857Z,100.0
2019-03-08T20:14:49.978Z,100.0
2019-03-08T20:16:50.190Z,100.0
2019-03-08T20:18:50.307Z,100.0
2019-03-08T20:20:50.588Z,100.0
2019-03-08T20:22:50.720Z,100.0
2019-03-08T20:24:50.850Z,100.0
2019-03-08T20:26:50.088Z,100.0
2019-03-08T20:28:50.354Z,100.0
2019-03-08T20:30:50.571Z,100.0
2019-03-08T20:32:52.183Z,100.0
2019-03-08T20:34:50.869Z,100.0
2019-03-08T20:36:50.159Z,100.0
2019-03-08T20:38:50.801Z,100.0
2019-03-08T20:40:50.613Z,100.0
2019-03-08T20:42:50.816Z,100.0
2019-03-08T20:44:50.925Z,100.0
2019-03-08T20:46:50.195Z,100.0
2019-03-08T20:48:50.332Z,100.0
2019-03-08T20:50:50.542Z,100.0
2019-03-08T20:52:50.721Z,100.0
2019-03-08T20:54:50.871Z,100.0
2019-03-08T20:56:50.171Z,100.0
2019-03-08T20:58:50.332Z,100.0
2019-03-08T21:00:50.498Z,100.0
2019-03-08T21:02:50.755Z,100.0
2019-03-08T21:04:50.183Z,100.0
2019-03-08T21:06:51.760Z,100.0
2019-03-08T21:08:50.092Z,100.0
2019-03-08T21:10:50.295Z,100.0
2019-03-08T21:12:50.452Z,100.0
2019-03-08T21:14:51.946Z,100.0
2019-03-08T21:16:50.474Z,100.0
2019-03-08T21:18:50.638Z,100.0
2019-03-08T21:20:50.825Z,100.0
2019-03-08T21:22:50.346Z,100.0
2019-03-08T21:24:50.563Z,100.0
2019-03-08T21:26:50.796Z,100.0
2019-03-08T21:28:50.960Z,100.0
2019-03-08T21:30:50.150Z,100.0
2019-03-08T21:32:50.395Z,100.0
2019-03-08T21:34:50.622Z,100.0
2019-03-08T21:36:50.896Z,100.0
2019-03-08T21:38:50.107Z,100.0
2019-03-08T21:40:50.309Z,100.0
2019-03-08T21:42:50.502Z,100.0
2019-03-08T21:44:50.632Z,100.0
2019-03-08T21:46:50.985Z,100.0
2019-03-08T21:48:53.129Z,100.0
2019-03-08T21:50:50.611Z,100.0
2019-03-08T21:52:50.816Z,100.0
2019-03-08T21:54:49.967Z,100.0
2019-03-08T21:56:51.469Z,100.0
2019-03-08T21:58:50.757Z,100.0
2019-03-08T22:00:50.953Z,100.0
2019-03-08T22:02:50.118Z,100.0
2019-03-08T22:04:50.461Z,100.0
2019-03-08T22:06:50.738Z,100.0
2019-03-08T22:08:50.959Z,100.0
2019-03-08T22:10:50.133Z,100.0
2019-03-08T22:12:50.327Z,100.0
2019-03-08T22:14:50.511Z,100.0
2019-03-08T22:16:50.667Z,100.0
2019-03-08T22:18:50.814Z,100.0
2019-03-08T22:20:50.080Z,100.0
2019-03-08T22:22:50.269Z,100.0
2019-03-08T22:24:50.502Z,100.0
2019-03-08T22:26:50.774Z,100.0
2019-03-08T22:28:50.976Z,100.0
2019-03-08T22:30:51.738Z,100.0
2019-03-08T22:32:50.079Z,100.0
2019-03-08T22:34:50.417Z,100.0
2019-03-08T22:36:50.720Z,100.0
2019-03-08T22:38:51.643Z,100.0
2019-03-08T22:40:50.808Z,100.0
2019-03-08T22:42:50.012Z,100.0
2019-03-08T22:44:50.202Z,100.0
2019-03-08T22:46:50.500Z,100.0
2019-03-08T22:48:50.670Z,100.0
2019-03-08T22:50:50.853Z,100.0
2019-03-08T22:52:50.039Z,100.0
2019-03-08T22:54:50.205Z,100.0
2019-03-08T22:56:50.524Z,100.0
2019-03-08T22:58:50.627Z,100.0
2019-03-08T23:00:50.779Z,100.0
2019-03-08T23:02:50.959Z,100.0
2019-03-08T23:04:50.446Z,100.0
2019-03-08T23:06:50.750Z,100.0
2019-03-08T23:08:50.922Z,100.0
2019-03-08T23:10:50.104Z,100.0
2019-03-08T23:12:51.505Z,100.0
2019-03-08T23:14:50.858Z,100.0
2019-03-08T23:16:50.144Z,100.0
2019-03-08T23:18:50.303Z,100.0
2019-03-08T23:20:50.462Z,100.0
2019-03-08T23:22:50.603Z,100.0
2019-03-08T23:24:50.787Z,100.0
2019-03-08T23:26:50.121Z,100.0
2019-03-08T23:28:50.247Z,100.0
2019-03-08T23:30:50.795Z,100.0
2019-03-08T23:32:50.975Z,100.0
2019-03-08T23:34:50.362Z,100.0
2019-03-08T23:36:50.660Z,100.0
2019-03-08T23:38:52.518Z,100.0
2019-03-08T23:40:50.908Z,100.0
2019-03-08T23:42:50.150Z,100.0
2019-03-08T23:44:50.346Z,100.0
2019-03-08T23:46:51.621Z,100.0
2019-03-08T23:48:50.738Z,100.0
2019-03-08T23:50:50.962Z,100.0
2019-03-08T23:52:50.146Z,100.0
2019-03-08T23:54:50.276Z,100.0
2019-03-08T23:56:50.524Z,100.0
2019-03-08T23:58:50.760Z,100.0
